createdAt,value
2023-04-15T00:02:18.462Z,9.84
2023-04-15T00:04:47.001Z,9.84
2023-04-15T00:07:14.969Z,9.86
2023-04-15T00:09:42.997Z,9.76
2023-04-15T00:12:11.185Z,9.73
2023-04-15T00:14:38.767Z,9.83
2023-04-15T00:17:05.851Z,9.81
2023-04-15T00:19:34.277Z,9.82
2023-04-15T00:22:01.552Z,9.83
2023-04-15T00:24:29.378Z,9.66
2023-04-15T00:26:56.602Z,9.81
2023-04-15T00:29:24.617Z,9.79
2023-04-15T00:31:51.813Z,9.77
2023-04-15T00:34:19.437Z,9.78
2023-04-15T00:36:47.020Z,9.78
2023-04-15T00:39:14.480Z,9.74
2023-04-15T00:41:43.759Z,9.70
2023-04-15T00:44:11.492Z,9.55
2023-04-15T00:46:41.941Z,9.38
2023-04-15T00:49:09.243Z,9.27
2023-04-15T00:51:37.228Z,9.14
2023-04-15T00:54:05.005Z,9.01
2023-04-15T00:56:38.668Z,9.10
2023-04-15T00:59:07.157Z,9.15
2023-04-15T01:01:36.507Z,9.24
2023-04-15T01:04:04.721Z,9.24
2023-04-15T01:06:32.805Z,9.28
2023-04-15T01:09:00.706Z,9.23
2023-04-15T01:11:28.440Z,9.17
2023-04-15T01:13:56.999Z,9.00
2023-04-15T01:16:24.998Z,9.00
2023-04-15T01:18:53.034Z,8.89
2023-04-15T01:21:20.389Z,8.88
2023-04-15T01:23:48.798Z,8.84
2023-04-15T01:26:16.464Z,8.91
2023-04-15T01:28:43.801Z,8.85
2023-04-15T01:31:13.639Z,8.84
2023-04-15T01:33:42.477Z,8.92
2023-04-15T01:36:10.927Z,8.84
2023-04-15T01:38:39.029Z,8.82
2023-04-15T01:41:08.197Z,8.83
2023-04-15T01:43:38.790Z,8.78
2023-04-15T01:46:07.164Z,8.74
2023-04-15T01:48:34.719Z,8.74
2023-04-15T01:51:03.991Z,8.67
2023-04-15T01:53:31.422Z,8.58
2023-04-15T01:55:58.582Z,8.56
2023-04-15T01:58:26.244Z,8.44
2023-04-15T02:00:53.707Z,8.48
2023-04-15T02:03:21.239Z,8.45
2023-04-15T02:05:48.481Z,8.41
2023-04-15T02:08:16.114Z,8.38
2023-04-15T02:10:43.600Z,8.33
2023-04-15T02:13:11.058Z,8.33
2023-04-15T02:15:38.272Z,8.38
2023-04-15T02:18:05.654Z,8.36
2023-04-15T02:20:32.940Z,8.37
2023-04-15T02:23:00.254Z,8.32
2023-04-15T02:25:27.357Z,8.32
2023-04-15T02:27:55.582Z,8.27
2023-04-15T02:30:24.116Z,8.22
2023-04-15T02:32:51.874Z,8.24
2023-04-15T02:35:19.964Z,8.22
2023-04-15T02:37:47.512Z,8.24
2023-04-15T02:40:14.848Z,8.18
2023-04-15T02:42:42.913Z,8.17
2023-04-15T02:45:13.237Z,8.10
2023-04-15T02:47:42.063Z,8.11
2023-04-15T02:50:12.938Z,8.15
2023-04-15T02:52:42.928Z,8.13
2023-04-15T02:55:10.800Z,8.15
2023-04-15T02:57:39.374Z,8.13
2023-04-15T03:00:10.353Z,8.15
2023-04-15T03:02:42.288Z,8.17
2023-04-15T03:05:13.918Z,8.17
2023-04-15T03:07:47.874Z,8.23
2023-04-15T03:10:15.705Z,8.23
2023-04-15T03:12:43.438Z,8.16
2023-04-15T03:15:15.781Z,8.25
2023-04-15T03:17:46.569Z,8.33
2023-04-15T03:20:14.511Z,8.31
2023-04-15T03:22:42.026Z,8.31
2023-04-15T03:25:09.706Z,8.38
2023-04-15T03:27:38.658Z,8.29
2023-04-15T03:30:07.830Z,8.32
2023-04-15T03:32:38.353Z,8.37
2023-04-15T03:35:07.289Z,8.35
2023-04-15T03:37:34.619Z,8.38
2023-04-15T03:40:02.149Z,8.38
2023-04-15T03:42:29.564Z,8.45
2023-04-15T03:44:56.960Z,8.43
2023-04-15T03:47:24.508Z,8.43
2023-04-15T03:49:51.816Z,8.38
2023-04-15T03:52:19.720Z,8.46
2023-04-15T03:54:46.922Z,8.43
2023-04-15T03:57:14.908Z,8.33
2023-04-15T03:59:42.239Z,8.41
2023-04-15T04:02:10.046Z,8.44
2023-04-15T04:04:37.571Z,8.43
2023-04-15T04:07:05.085Z,8.40
2023-04-15T04:09:32.294Z,8.42
2023-04-15T04:11:59.683Z,8.49
2023-04-15T04:14:29.855Z,8.49
2023-04-15T04:16:57.591Z,8.36
2023-04-15T04:19:24.766Z,8.39
2023-04-15T04:21:52.700Z,8.50
2023-04-15T04:24:20.016Z,8.54
2023-04-15T04:26:47.480Z,8.46
2023-04-15T04:29:14.564Z,8.54
2023-04-15T04:31:42.168Z,8.46
2023-04-15T04:34:09.847Z,8.39
2023-04-15T04:36:37.481Z,8.45
2023-04-15T04:39:04.584Z,8.42
2023-04-15T04:41:32.499Z,8.39
2023-04-15T04:44:00.075Z,8.44
2023-04-15T04:46:27.981Z,8.39
2023-04-15T04:48:55.129Z,8.35
2023-04-15T04:51:22.692Z,8.35
2023-04-15T04:53:49.912Z,8.27
2023-04-15T04:56:17.337Z,8.33
2023-04-15T04:58:44.798Z,8.30
2023-04-15T05:01:13.291Z,8.27
2023-04-15T05:03:40.694Z,8.26
2023-04-15T05:06:08.977Z,8.24
2023-04-15T05:08:36.954Z,8.18
2023-04-15T05:11:05.669Z,8.21
2023-04-15T05:13:33.260Z,8.16
2023-04-15T05:16:00.971Z,8.18
2023-04-15T05:18:28.281Z,8.18
2023-04-15T05:20:55.819Z,8.22
2023-04-15T05:23:23.010Z,8.13
2023-04-15T05:25:50.524Z,8.19
2023-04-15T05:28:17.886Z,8.12
2023-04-15T05:30:46.088Z,8.18
2023-04-15T05:33:13.400Z,8.18
2023-04-15T05:35:40.904Z,8.11
2023-04-15T05:38:08.330Z,8.19
2023-04-15T05:40:36.152Z,8.17
2023-04-15T05:43:03.545Z,8.19
2023-04-15T05:45:31.241Z,8.14
2023-04-15T05:47:58.640Z,8.14
2023-04-15T05:50:26.428Z,8.19
2023-04-15T05:52:53.746Z,8.17
2023-04-15T05:55:21.363Z,8.18
2023-04-15T05:57:48.740Z,8.22
2023-04-15T06:00:16.667Z,8.20
2023-04-15T06:02:44.586Z,8.22
2023-04-15T06:05:12.895Z,8.17
2023-04-15T06:07:40.208Z,8.14
2023-04-15T06:10:08.525Z,8.18
2023-04-15T06:12:36.454Z,8.02
2023-04-15T06:15:05.052Z,8.07
2023-04-15T06:17:32.339Z,8.04
2023-04-15T06:20:00.072Z,8.18
2023-04-15T06:22:27.458Z,8.14
2023-04-15T06:24:55.006Z,8.08
2023-04-15T06:27:23.279Z,8.15
2023-04-15T06:29:51.356Z,8.16
2023-04-15T06:32:18.579Z,8.20
2023-04-15T06:34:46.254Z,8.17
2023-04-15T06:37:16.659Z,8.16
2023-04-15T06:39:45.081Z,8.18
2023-04-15T06:42:12.614Z,8.17
2023-04-15T06:44:40.793Z,8.13
2023-04-15T06:47:09.228Z,8.08
2023-04-15T06:49:37.274Z,8.17
2023-04-15T06:52:05.914Z,8.11
2023-04-15T06:54:33.643Z,8.10
2023-04-15T06:57:01.145Z,8.00
2023-04-15T06:59:29.650Z,8.14
2023-04-15T07:01:57.163Z,8.14
2023-04-15T07:04:25.750Z,8.14
2023-04-15T07:06:53.064Z,8.15
2023-04-15T07:09:20.775Z,8.14
2023-04-15T07:11:47.815Z,8.16
2023-04-15T07:14:15.498Z,8.10
2023-04-15T07:16:43.097Z,8.17
2023-04-15T07:19:10.863Z,8.18
2023-04-15T07:21:39.447Z,8.13
2023-04-15T07:24:10.493Z,8.15
2023-04-15T07:26:37.759Z,8.16
2023-04-15T07:29:05.320Z,8.06
2023-04-15T07:31:32.576Z,8.19
2023-04-15T07:34:00.058Z,8.13
2023-04-15T07:36:27.277Z,8.20
2023-04-15T07:38:55.446Z,8.15
2023-04-15T07:41:22.758Z,8.19
2023-04-15T07:43:50.805Z,8.24
2023-04-15T07:46:18.350Z,8.18
2023-04-15T07:48:46.671Z,8.12
2023-04-15T07:51:14.075Z,8.23
2023-04-15T07:53:42.549Z,8.26
2023-04-15T07:56:09.768Z,8.19
2023-04-15T07:58:37.528Z,8.21
2023-04-15T08:01:05.861Z,8.23
2023-04-15T08:03:34.258Z,8.26
2023-04-15T08:06:01.901Z,8.20
2023-04-15T08:08:29.597Z,8.24
2023-04-15T08:10:57.870Z,8.29
2023-04-15T08:13:26.545Z,8.32
2023-04-15T08:16:14.848Z,8.31
2023-04-15T08:18:42.687Z,8.33
2023-04-15T08:21:10.744Z,8.34
2023-04-15T08:23:39.544Z,8.31
2023-04-15T08:26:06.875Z,8.31
2023-04-15T08:28:35.029Z,8.38
2023-04-15T08:31:02.375Z,8.31
2023-04-15T08:33:29.836Z,8.45
2023-04-15T08:35:57.736Z,8.46
2023-04-15T08:38:25.807Z,8.43
2023-04-15T08:40:52.980Z,8.52
2023-04-15T08:43:26.859Z,8.55
2023-04-15T08:45:57.270Z,8.55
2023-04-15T08:48:30.043Z,8.54
2023-04-15T08:50:57.570Z,8.55
2023-04-15T08:53:25.970Z,8.57
2023-04-15T08:55:55.157Z,8.59
2023-04-15T08:58:23.245Z,8.62
2023-04-15T09:00:51.346Z,8.58
2023-04-15T09:03:19.443Z,8.63
2023-04-15T09:05:47.220Z,8.71
2023-04-15T09:08:15.193Z,8.65
2023-04-15T09:10:42.887Z,8.70
2023-04-15T09:13:10.784Z,8.67
2023-04-15T09:15:41.307Z,8.72
2023-04-15T09:18:12.231Z,8.75
2023-04-15T09:20:42.365Z,8.77
2023-04-15T09:23:14.429Z,8.88
2023-04-15T09:25:42.840Z,8.91
2023-04-15T09:28:11.661Z,8.93
2023-04-15T09:30:39.038Z,8.89
2023-04-15T09:33:11.107Z,8.92
2023-04-15T09:35:38.463Z,8.89
2023-04-15T09:38:08.390Z,8.93
2023-04-15T09:40:40.727Z,8.94
2023-04-15T09:43:10.906Z,8.93
2023-04-15T09:45:38.379Z,8.92
2023-04-15T09:48:27.349Z,8.89
2023-04-15T09:50:58.262Z,8.92
2023-04-15T09:53:26.105Z,8.79
2023-04-15T09:55:58.723Z,8.88
2023-04-15T09:58:31.481Z,8.89
2023-04-15T10:01:00.199Z,8.88
2023-04-15T10:03:29.808Z,8.91
2023-04-15T10:05:59.572Z,8.94
2023-04-15T10:08:33.113Z,8.97
2023-04-15T10:11:03.567Z,8.96
2023-04-15T10:13:38.457Z,8.99
2023-04-15T10:16:08.800Z,9.04
2023-04-15T10:18:39.035Z,9.00
2023-04-15T10:21:07.518Z,9.13
2023-04-15T10:23:35.163Z,9.16
2023-04-15T10:26:03.476Z,9.20
2023-04-15T10:28:31.298Z,9.22
2023-04-15T10:30:59.970Z,9.22
2023-04-15T10:33:28.460Z,9.11
2023-04-15T10:35:56.228Z,9.14
2023-04-15T10:38:37.993Z,9.16
2023-04-15T10:41:17.056Z,9.08
2023-04-15T10:43:55.249Z,9.19
2023-04-15T10:46:45.624Z,9.14
2023-04-15T10:49:15.526Z,9.14
2023-04-15T10:51:53.066Z,9.05
2023-04-15T10:54:26.327Z,9.11
2023-04-15T10:57:08.608Z,9.13
2023-04-15T10:59:37.946Z,9.18
2023-04-15T11:02:08.682Z,9.19
2023-04-15T11:04:59.952Z,9.20
2023-04-15T11:07:41.896Z,9.24
2023-04-15T11:10:21.342Z,9.28
2023-04-15T11:12:52.475Z,9.28
2023-04-15T11:15:42.445Z,9.37
2023-04-15T11:18:20.888Z,9.37
2023-04-15T11:20:59.503Z,9.41
2023-04-15T11:23:43.441Z,9.43
2023-04-15T11:26:12.524Z,9.42
2023-04-15T11:28:45.222Z,9.45
2023-04-15T11:31:13.596Z,9.43
2023-04-15T11:33:59.840Z,9.45
2023-04-15T11:36:28.874Z,9.46
2023-04-15T11:38:58.426Z,9.48
2023-04-15T11:41:26.364Z,9.51
2023-04-15T11:43:53.753Z,9.40
2023-04-15T11:46:22.937Z,9.48
2023-04-15T11:48:51.067Z,9.50
2023-04-15T11:51:20.873Z,9.53
2023-04-15T11:53:50.616Z,9.49
2023-04-15T11:56:26.277Z,9.47
2023-04-15T11:58:58.557Z,9.50
2023-04-15T12:01:52.839Z,9.58
2023-04-15T12:04:25.257Z,9.53
2023-04-15T12:06:53.620Z,9.56
2023-04-15T12:09:21.965Z,9.58
2023-04-15T12:11:51.625Z,9.47
2023-04-15T12:14:24.510Z,9.53
2023-04-15T12:17:03.430Z,9.47
2023-04-15T12:19:39.051Z,9.43
2023-04-15T12:22:10.224Z,9.44
2023-04-15T12:24:38.756Z,9.47
2023-04-15T12:27:08.188Z,9.45
2023-04-15T12:29:37.501Z,9.39
2023-04-15T12:32:13.632Z,9.43
2023-04-15T12:34:59.758Z,9.42
2023-04-15T12:37:27.543Z,9.29
2023-04-15T12:39:55.211Z,9.40
2023-04-15T12:42:22.876Z,9.48
2023-04-15T12:44:50.039Z,9.50
2023-04-15T12:47:18.092Z,9.50
2023-04-15T12:49:45.957Z,9.52
2023-04-15T12:52:13.934Z,9.58
2023-04-15T12:54:41.401Z,9.53
2023-04-15T12:57:09.256Z,9.55
2023-04-15T12:59:37.747Z,9.52
2023-04-15T13:02:05.504Z,9.52
2023-04-15T13:04:33.365Z,9.46
2023-04-15T13:07:02.462Z,9.42
2023-04-15T13:09:29.908Z,9.38
2023-04-15T13:11:58.345Z,9.51
2023-04-15T13:14:25.829Z,9.49
2023-04-15T13:16:54.074Z,9.54
2023-04-15T13:19:21.588Z,9.59
2023-04-15T13:21:49.360Z,9.67
2023-04-15T13:24:17.203Z,9.65
2023-04-15T13:26:44.850Z,9.57
2023-04-15T13:29:12.570Z,9.56
2023-04-15T13:31:40.175Z,9.49
2023-04-15T13:34:07.767Z,9.51
2023-04-15T13:36:35.619Z,9.57
2023-04-15T13:39:03.682Z,9.53
2023-04-15T13:41:31.477Z,9.53
2023-04-15T13:43:59.883Z,9.42
2023-04-15T13:46:28.320Z,9.33
2023-04-15T13:48:56.024Z,9.25
2023-04-15T13:51:23.606Z,9.17
2023-04-15T13:53:50.900Z,9.13
2023-04-15T13:56:18.408Z,9.15
2023-04-15T13:58:46.078Z,9.18
2023-04-15T14:01:14.018Z,9.19
2023-04-15T14:03:41.674Z,9.21
2023-04-15T14:06:09.465Z,9.25
2023-04-15T14:08:36.762Z,9.28
2023-04-15T14:11:04.468Z,9.34
2023-04-15T14:13:31.626Z,9.37
2023-04-15T14:15:59.332Z,9.43
2023-04-15T14:18:26.703Z,9.48
2023-04-15T14:20:54.270Z,9.48
2023-04-15T14:23:21.791Z,9.53
2023-04-15T14:25:50.210Z,9.61
2023-04-15T14:28:17.619Z,9.73
2023-04-15T14:30:45.344Z,9.66
2023-04-15T14:33:12.776Z,9.70
2023-04-15T14:35:40.425Z,9.65
2023-04-15T14:38:11.142Z,9.68
2023-04-15T14:40:39.459Z,9.63
2023-04-15T14:43:06.710Z,9.67
2023-04-15T14:45:35.207Z,9.66
2023-04-15T14:48:02.595Z,9.55
2023-04-15T14:50:30.256Z,9.57
2023-04-15T14:52:57.672Z,9.57
2023-04-15T14:55:25.399Z,9.63
2023-04-15T14:57:52.732Z,9.64
2023-04-15T15:00:20.585Z,9.65
2023-04-15T15:02:48.038Z,9.60
2023-04-15T15:05:16.318Z,9.65
2023-04-15T15:07:43.983Z,9.72
2023-04-15T15:10:11.724Z,9.79
2023-04-15T15:12:39.044Z,9.78
2023-04-15T15:15:16.121Z,9.84
2023-04-15T15:17:47.265Z,9.83
2023-04-15T15:20:16.769Z,9.88
2023-04-15T15:22:44.079Z,9.80
2023-04-15T15:25:11.639Z,9.82
2023-04-15T15:27:38.827Z,9.83
2023-04-15T15:30:07.101Z,9.82
2023-04-15T15:32:34.530Z,9.84
2023-04-15T15:35:02.349Z,9.78
2023-04-15T15:37:31.270Z,9.82
2023-04-15T15:39:58.982Z,9.83
2023-04-15T15:42:26.747Z,9.88
2023-04-15T15:44:54.424Z,9.83
2023-04-15T15:47:22.421Z,9.87
2023-04-15T15:49:50.311Z,9.96
2023-04-15T15:52:17.892Z,9.92
2023-04-15T15:54:46.122Z,9.87
2023-04-15T15:57:13.248Z,9.87
2023-04-15T15:59:41.450Z,9.88
2023-04-15T16:02:12.836Z,9.92
2023-04-15T16:04:40.942Z,9.89
2023-04-15T16:07:08.519Z,9.92
2023-04-15T16:09:36.149Z,9.97
2023-04-15T16:12:04.246Z,10.05
2023-04-15T16:14:31.949Z,10.05
2023-04-15T16:16:59.264Z,9.98
2023-04-15T16:19:27.052Z,9.98
2023-04-15T16:21:54.691Z,9.88
2023-04-15T16:24:22.563Z,9.95
2023-04-15T16:26:49.820Z,9.94
2023-04-15T16:29:17.531Z,9.92
2023-04-15T16:31:45.813Z,9.90
2023-04-15T16:34:13.653Z,9.88
2023-04-15T16:36:41.012Z,9.80
2023-04-15T16:39:08.676Z,9.89
2023-04-15T16:41:36.669Z,9.96
2023-04-15T16:44:04.572Z,9.94
2023-04-15T16:46:32.166Z,9.89
2023-04-15T16:49:00.051Z,9.94
2023-04-15T16:51:30.664Z,9.89
2023-04-15T16:53:59.237Z,9.83
2023-04-15T16:56:27.381Z,9.72
2023-04-15T16:58:55.082Z,9.64
2023-04-15T17:01:22.742Z,9.59
2023-04-15T17:03:53.503Z,9.57
2023-04-15T17:06:23.053Z,9.56
2023-04-15T17:08:50.973Z,9.52
2023-04-15T17:11:18.308Z,9.51
2023-04-15T17:13:47.388Z,9.52
2023-04-15T17:16:14.679Z,9.51
2023-04-15T17:18:42.407Z,9.46
2023-04-15T17:21:09.792Z,9.38
2023-04-15T17:23:37.536Z,9.40
2023-04-15T17:26:05.070Z,9.40
2023-04-15T17:28:32.760Z,9.41
2023-04-15T17:31:00.181Z,9.36
2023-04-15T17:33:57.536Z,9.35
2023-04-15T17:36:15.262Z,9.30
2023-04-15T17:38:43.012Z,9.26
2023-04-15T17:41:10.860Z,9.25
2023-04-15T17:43:38.622Z,9.25
2023-04-15T17:46:07.460Z,9.22
2023-04-15T17:48:35.532Z,9.19
2023-04-15T17:51:03.051Z,9.17
2023-04-15T17:53:31.114Z,9.05
2023-04-15T17:55:59.481Z,9.04
2023-04-15T17:58:28.324Z,9.12
2023-04-15T18:00:55.513Z,9.03
2023-04-15T18:03:23.392Z,9.00
2023-04-15T18:05:51.183Z,8.99
2023-04-15T18:08:18.707Z,9.00
2023-04-15T18:10:46.004Z,9.00
2023-04-15T18:13:13.604Z,8.99
2023-04-15T18:15:41.199Z,9.00
2023-04-15T18:18:09.341Z,9.00
2023-04-15T18:20:36.877Z,8.90
2023-04-15T18:23:04.599Z,8.95
2023-04-15T18:25:32.225Z,9.01
2023-04-15T18:28:00.017Z,8.95
2023-04-15T18:30:27.395Z,9.01
2023-04-15T18:32:55.435Z,9.01
2023-04-15T18:35:24.445Z,8.96
2023-04-15T18:37:53.236Z,8.98
2023-04-15T18:40:20.677Z,8.93
2023-04-15T18:42:48.435Z,8.95
2023-04-15T18:45:15.988Z,8.97
2023-04-15T18:47:44.147Z,8.98
2023-04-15T18:50:11.872Z,8.97
2023-04-15T18:52:39.744Z,8.91
2023-04-15T18:55:07.800Z,8.93
2023-04-15T18:57:36.965Z,8.95
2023-04-15T19:00:06.275Z,8.89
2023-04-15T19:02:34.241Z,8.90
2023-04-15T19:05:04.507Z,8.88
2023-04-15T19:07:32.662Z,8.85
2023-04-15T19:10:00.948Z,8.85
2023-04-15T19:12:29.691Z,8.86
2023-04-15T19:14:57.200Z,8.83
2023-04-15T19:17:24.913Z,8.79
2023-04-15T19:19:52.372Z,8.78
2023-04-15T19:22:20.231Z,8.80
2023-04-15T19:24:47.544Z,8.79
2023-04-15T19:27:15.934Z,8.75
2023-04-15T19:29:43.487Z,8.73
2023-04-15T19:32:14.189Z,8.75
2023-04-15T19:34:42.130Z,8.70
2023-04-15T19:37:10.084Z,8.72
2023-04-15T19:39:37.686Z,8.70
2023-04-15T19:42:05.783Z,8.73
2023-04-15T19:44:33.238Z,8.71
2023-04-15T19:47:01.171Z,8.72
2023-04-15T19:49:28.620Z,8.65
2023-04-15T19:51:56.535Z,8.60
2023-04-15T19:54:24.273Z,8.65
2023-04-15T19:56:51.959Z,8.66
2023-04-15T19:59:19.410Z,8.66
2023-04-15T20:01:47.572Z,8.66
2023-04-15T20:04:15.080Z,8.63
2023-04-15T20:06:43.347Z,8.58
2023-04-15T20:09:11.640Z,8.58
2023-04-15T20:12:46.954Z,8.56
2023-04-15T20:14:27.064Z,8.57
2023-04-15T20:16:54.887Z,8.58
2023-04-15T20:19:22.309Z,8.56
2023-04-15T20:21:52.065Z,8.59
2023-04-15T20:24:22.448Z,8.58
2023-04-15T20:26:52.243Z,8.58
2023-04-15T20:29:19.798Z,8.47
2023-04-15T20:31:47.795Z,8.47
2023-04-15T20:34:15.212Z,8.46
2023-04-15T20:36:43.362Z,8.35
2023-04-15T20:39:10.834Z,8.39
2023-04-15T20:41:39.047Z,8.42
2023-04-15T20:44:06.978Z,8.39
2023-04-15T20:46:34.762Z,8.39
2023-04-15T20:49:02.227Z,8.41
2023-04-15T20:51:33.269Z,8.39
2023-04-15T20:54:00.686Z,8.36
2023-04-15T20:56:28.548Z,8.29
2023-04-15T20:58:56.160Z,8.29
2023-04-15T21:01:23.989Z,8.30
2023-04-15T21:03:51.609Z,8.27
2023-04-15T21:06:19.292Z,8.24
2023-04-15T21:08:46.596Z,8.20
2023-04-15T21:11:21.890Z,8.16
2023-04-15T21:14:02.012Z,8.18
2023-04-15T21:16:31.932Z,8.20
2023-04-15T21:18:59.360Z,8.15
2023-04-15T21:21:28.336Z,8.16
2023-04-15T21:23:55.916Z,8.17
2023-04-15T21:26:23.752Z,8.10
2023-04-15T21:28:51.165Z,8.08
2023-04-15T21:31:20.632Z,8.03
2023-04-15T21:33:48.014Z,8.00
2023-04-15T21:36:16.112Z,7.96
2023-04-15T21:38:43.361Z,7.93
2023-04-15T21:41:11.228Z,7.90
2023-04-15T21:43:38.682Z,7.89
2023-04-15T21:46:23.578Z,7.85
2023-04-15T21:48:55.905Z,7.84
2023-04-15T21:51:23.610Z,7.84
2023-04-15T21:53:51.143Z,7.84
2023-04-15T21:56:20.764Z,7.80
2023-04-15T21:58:48.150Z,7.78
2023-04-15T22:01:15.843Z,7.82
2023-04-15T22:03:43.317Z,7.81
2023-04-15T22:06:11.465Z,7.82
2023-04-15T22:08:52.488Z,7.73
2023-04-15T22:11:28.765Z,7.77
2023-04-15T22:13:57.667Z,7.74
2023-04-15T22:16:26.848Z,7.70
2023-04-15T22:18:55.397Z,7.78
2023-04-15T22:21:23.689Z,7.72
2023-04-15T22:23:51.386Z,7.71
2023-04-15T22:26:19.005Z,7.67
2023-04-15T22:28:46.393Z,7.70
2023-04-15T22:31:15.318Z,7.71
2023-04-15T22:33:43.358Z,7.69
2023-04-15T22:36:10.970Z,7.66
2023-04-15T22:38:38.459Z,7.69
2023-04-15T22:41:06.731Z,7.65
2023-04-15T22:43:34.231Z,7.61
2023-04-15T22:46:01.881Z,7.61
2023-04-15T22:48:29.292Z,7.56
2023-04-15T22:50:56.978Z,7.59
2023-04-15T22:53:24.381Z,7.61
2023-04-15T22:55:52.125Z,7.55
2023-04-15T22:58:19.829Z,7.57
2023-04-15T23:00:47.510Z,7.60
2023-04-15T23:03:15.180Z,7.56
2023-04-15T23:05:46.160Z,7.54
2023-04-15T23:08:13.662Z,7.53
2023-04-15T23:10:41.325Z,7.51
2023-04-15T23:13:08.759Z,7.49
2023-04-15T23:15:36.742Z,7.53
2023-04-15T23:18:04.059Z,7.57
2023-04-15T23:20:31.655Z,7.57
2023-04-15T23:22:58.958Z,7.58
2023-04-15T23:25:26.518Z,7.52
2023-04-15T23:27:54.106Z,7.55
2023-04-15T23:30:22.224Z,7.56
2023-04-15T23:32:49.573Z,7.47
2023-04-15T23:35:17.129Z,7.48
2023-04-15T23:37:44.591Z,7.46
2023-04-15T23:40:12.812Z,7.41
2023-04-15T23:42:40.165Z,7.42
2023-04-15T23:45:09.387Z,7.43
2023-04-15T23:47:36.825Z,7.46
2023-04-15T23:50:04.498Z,7.37
2023-04-15T23:52:31.840Z,7.36
2023-04-15T23:55:00.240Z,7.50
2023-04-15T23:57:27.432Z,7.47
2023-04-15T23:59:55.083Z,7.45
